sensor_id;sensor_type;location;lat;lon;timestamp;P1;durP1;ratioP1;P2;durP2;ratioP2
22646;SDS011;11490;42.726;23.268;2023-05-20T00:00:10;14.38;;;8.30;;
22646;SDS011;11490;42.726;23.268;2023-05-20T00:02:35;14.10;;;7.60;;
22646;SDS011;11490;42.726;23.268;2023-05-20T00:05:01;16.42;;;7.50;;
22646;SDS011;11490;42.726;23.268;2023-05-20T00:07:26;14.65;;;7.43;;
22646;SDS011;11490;42.726;23.268;2023-05-20T00:09:52;10.60;;;6.97;;
22646;SDS011;11490;42.726;23.268;2023-05-20T00:12:17;14.10;;;6.75;;
22646;SDS011;11490;42.726;23.268;2023-05-20T00:14:43;13.38;;;6.30;;
22646;SDS011;11490;42.726;23.268;2023-05-20T00:17:08;8.82;;;6.15;;
22646;SDS011;11490;42.726;23.268;2023-05-20T00:19:34;12.60;;;7.60;;
22646;SDS011;11490;42.726;23.268;2023-05-20T00:21:59;11.15;;;6.88;;
22646;SDS011;11490;42.726;23.268;2023-05-20T00:24:25;9.98;;;6.18;;
22646;SDS011;11490;42.726;23.268;2023-05-20T00:26:51;9.63;;;6.53;;
22646;SDS011;11490;42.726;23.268;2023-05-20T00:29:16;13.75;;;7.50;;
22646;SDS011;11490;42.726;23.268;2023-05-20T00:31:42;11.32;;;7.30;;
22646;SDS011;11490;42.726;23.268;2023-05-20T00:34:07;11.73;;;6.43;;
22646;SDS011;11490;42.726;23.268;2023-05-20T00:36:34;10.98;;;6.60;;
22646;SDS011;11490;42.726;23.268;2023-05-20T00:38:59;14.40;;;7.20;;
22646;SDS011;11490;42.726;23.268;2023-05-20T00:41:25;11.15;;;6.30;;
22646;SDS011;11490;42.726;23.268;2023-05-20T00:43:53;14.95;;;7.35;;
22646;SDS011;11490;42.726;23.268;2023-05-20T00:46:20;8.65;;;6.25;;
22646;SDS011;11490;42.726;23.268;2023-05-20T00:48:46;12.23;;;7.10;;
22646;SDS011;11490;42.726;23.268;2023-05-20T00:51:12;13.93;;;7.30;;
22646;SDS011;11490;42.726;23.268;2023-05-20T00:53:38;11.35;;;7.18;;
22646;SDS011;11490;42.726;23.268;2023-05-20T00:56:05;9.73;;;6.07;;
22646;SDS011;11490;42.726;23.268;2023-05-20T00:58:32;9.70;;;6.70;;
22646;SDS011;11490;42.726;23.268;2023-05-20T01:00:58;16.75;;;7.10;;
22646;SDS011;11490;42.726;23.268;2023-05-20T01:03:23;11.52;;;7.05;;
22646;SDS011;11490;42.726;23.268;2023-05-20T01:05:49;11.57;;;7.03;;
22646;SDS011;11490;42.726;23.268;2023-05-20T01:08:14;12.52;;;6.78;;
22646;SDS011;11490;42.726;23.268;2023-05-20T01:10:41;9.13;;;6.40;;
22646;SDS011;11490;42.726;23.268;2023-05-20T01:13:09;10.68;;;5.80;;
22646;SDS011;11490;42.726;23.268;2023-05-20T01:15:39;13.98;;;6.57;;
22646;SDS011;11490;42.726;23.268;2023-05-20T01:18:07;8.38;;;5.88;;
22646;SDS011;11490;42.726;23.268;2023-05-20T01:20:34;9.68;;;5.90;;
22646;SDS011;11490;42.726;23.268;2023-05-20T01:23:01;12.63;;;6.72;;
22646;SDS011;11490;42.726;23.268;2023-05-20T01:25:27;8.50;;;5.63;;
22646;SDS011;11490;42.726;23.268;2023-05-20T01:27:53;13.18;;;7.10;;
22646;SDS011;11490;42.726;23.268;2023-05-20T01:30:21;10.13;;;6.45;;
22646;SDS011;11490;42.726;23.268;2023-05-20T01:33:00;10.60;;;6.72;;
22646;SDS011;11490;42.726;23.268;2023-05-20T01:35:28;9.02;;;5.75;;
22646;SDS011;11490;42.726;23.268;2023-05-20T01:37:54;10.02;;;6.68;;
22646;SDS011;11490;42.726;23.268;2023-05-20T01:40:22;11.98;;;7.43;;
22646;SDS011;11490;42.726;23.268;2023-05-20T01:42:49;13.07;;;7.35;;
22646;SDS011;11490;42.726;23.268;2023-05-20T01:45:17;8.93;;;6.45;;
22646;SDS011;11490;42.726;23.268;2023-05-20T01:47:46;11.30;;;6.65;;
22646;SDS011;11490;42.726;23.268;2023-05-20T01:50:11;13.63;;;7.45;;
22646;SDS011;11490;42.726;23.268;2023-05-20T01:52:36;14.63;;;6.47;;
22646;SDS011;11490;42.726;23.268;2023-05-20T01:55:02;13.27;;;6.47;;
22646;SDS011;11490;42.726;23.268;2023-05-20T01:57:27;11.02;;;6.30;;
22646;SDS011;11490;42.726;23.268;2023-05-20T01:59:53;11.50;;;6.75;;
22646;SDS011;11490;42.726;23.268;2023-05-20T02:02:18;12.30;;;7.45;;
22646;SDS011;11490;42.726;23.268;2023-05-20T02:04:44;9.73;;;6.38;;
22646;SDS011;11490;42.726;23.268;2023-05-20T02:07:13;11.02;;;7.28;;
22646;SDS011;11490;42.726;23.268;2023-05-20T02:09:39;10.60;;;6.22;;
22646;SDS011;11490;42.726;23.268;2023-05-20T02:12:05;10.27;;;6.28;;
22646;SDS011;11490;42.726;23.268;2023-05-20T02:14:31;8.93;;;6.57;;
22646;SDS011;11490;42.726;23.268;2023-05-20T02:16:57;11.80;;;6.88;;
22646;SDS011;11490;42.726;23.268;2023-05-20T02:19:22;13.35;;;7.28;;
22646;SDS011;11490;42.726;23.268;2023-05-20T02:21:48;9.70;;;7.03;;
22646;SDS011;11490;42.726;23.268;2023-05-20T02:24:14;16.88;;;7.45;;
22646;SDS011;11490;42.726;23.268;2023-05-20T02:26:39;9.52;;;6.60;;
22646;SDS011;11490;42.726;23.268;2023-05-20T02:29:05;17.05;;;7.47;;
22646;SDS011;11490;42.726;23.268;2023-05-20T02:31:30;12.20;;;7.53;;
22646;SDS011;11490;42.726;23.268;2023-05-20T02:33:56;11.40;;;7.93;;
22646;SDS011;11490;42.726;23.268;2023-05-20T02:36:21;16.15;;;7.85;;
22646;SDS011;11490;42.726;23.268;2023-05-20T02:38:47;13.00;;;6.78;;
22646;SDS011;11490;42.726;23.268;2023-05-20T02:41:12;11.35;;;7.07;;
22646;SDS011;11490;42.726;23.268;2023-05-20T02:43:38;11.90;;;6.90;;
22646;SDS011;11490;42.726;23.268;2023-05-20T02:46:04;12.60;;;7.15;;
22646;SDS011;11490;42.726;23.268;2023-05-20T02:48:30;11.65;;;6.55;;
22646;SDS011;11490;42.726;23.268;2023-05-20T02:50:57;10.75;;;6.65;;
22646;SDS011;11490;42.726;23.268;2023-05-20T02:53:23;9.55;;;6.38;;
22646;SDS011;11490;42.726;23.268;2023-05-20T02:55:48;13.32;;;6.93;;
22646;SDS011;11490;42.726;23.268;2023-05-20T02:58:15;16.60;;;7.38;;
22646;SDS011;11490;42.726;23.268;2023-05-20T03:00:41;14.98;;;7.97;;
22646;SDS011;11490;42.726;23.268;2023-05-20T03:03:07;11.27;;;7.15;;
22646;SDS011;11490;42.726;23.268;2023-05-20T03:05:34;11.73;;;7.45;;
22646;SDS011;11490;42.726;23.268;2023-05-20T03:08:06;13.60;;;7.30;;
22646;SDS011;11490;42.726;23.268;2023-05-20T03:10:33;9.95;;;6.13;;
22646;SDS011;11490;42.726;23.268;2023-05-20T03:12:59;19.10;;;7.10;;
22646;SDS011;11490;42.726;23.268;2023-05-20T03:15:25;10.90;;;7.20;;
22646;SDS011;11490;42.726;23.268;2023-05-20T03:17:50;9.60;;;6.90;;
22646;SDS011;11490;42.726;23.268;2023-05-20T03:20:15;16.35;;;7.78;;
22646;SDS011;11490;42.726;23.268;2023-05-20T03:22:41;9.85;;;6.30;;
22646;SDS011;11490;42.726;23.268;2023-05-20T03:25:07;14.65;;;7.22;;
22646;SDS011;11490;42.726;23.268;2023-05-20T03:27:33;12.88;;;6.60;;
22646;SDS011;11490;42.726;23.268;2023-05-20T03:30:00;15.07;;;8.23;;
22646;SDS011;11490;42.726;23.268;2023-05-20T03:32:27;9.88;;;7.10;;
22646;SDS011;11490;42.726;23.268;2023-05-20T03:34:52;9.55;;;6.45;;
22646;SDS011;11490;42.726;23.268;2023-05-20T03:37:18;11.00;;;6.28;;
22646;SDS011;11490;42.726;23.268;2023-05-20T03:39:44;13.32;;;6.65;;
22646;SDS011;11490;42.726;23.268;2023-05-20T03:42:09;12.13;;;6.68;;
22646;SDS011;11490;42.726;23.268;2023-05-20T03:44:35;14.35;;;7.60;;
22646;SDS011;11490;42.726;23.268;2023-05-20T03:47:00;14.05;;;7.32;;
22646;SDS011;11490;42.726;23.268;2023-05-20T03:49:25;12.50;;;7.07;;
22646;SDS011;11490;42.726;23.268;2023-05-20T03:51:51;13.35;;;7.85;;
22646;SDS011;11490;42.726;23.268;2023-05-20T03:54:16;11.15;;;7.10;;
22646;SDS011;11490;42.726;23.268;2023-05-20T03:56:42;12.15;;;7.43;;
22646;SDS011;11490;42.726;23.268;2023-05-20T03:59:07;15.30;;;7.18;;
22646;SDS011;11490;42.726;23.268;2023-05-20T04:01:32;12.70;;;8.70;;
22646;SDS011;11490;42.726;23.268;2023-05-20T04:03:58;14.98;;;8.07;;
22646;SDS011;11490;42.726;23.268;2023-05-20T04:06:24;11.25;;;7.32;;
22646;SDS011;11490;42.726;23.268;2023-05-20T04:08:50;14.82;;;6.53;;
22646;SDS011;11490;42.726;23.268;2023-05-20T04:11:16;10.30;;;6.25;;
22646;SDS011;11490;42.726;23.268;2023-05-20T04:13:42;11.13;;;7.38;;
22646;SDS011;11490;42.726;23.268;2023-05-20T04:16:07;13.07;;;7.78;;
22646;SDS011;11490;42.726;23.268;2023-05-20T04:18:32;12.00;;;7.53;;
22646;SDS011;11490;42.726;23.268;2023-05-20T04:20:58;21.23;;;6.88;;
22646;SDS011;11490;42.726;23.268;2023-05-20T04:23:25;9.63;;;6.30;;
22646;SDS011;11490;42.726;23.268;2023-05-20T04:25:51;13.10;;;7.00;;
22646;SDS011;11490;42.726;23.268;2023-05-20T04:28:16;14.48;;;7.72;;
22646;SDS011;11490;42.726;23.268;2023-05-20T04:30:41;11.48;;;7.45;;
22646;SDS011;11490;42.726;23.268;2023-05-20T04:33:09;12.52;;;7.25;;
22646;SDS011;11490;42.726;23.268;2023-05-20T04:35:35;12.48;;;8.25;;
22646;SDS011;11490;42.726;23.268;2023-05-20T04:38:01;11.30;;;7.18;;
22646;SDS011;11490;42.726;23.268;2023-05-20T04:40:27;25.95;;;7.60;;
22646;SDS011;11490;42.726;23.268;2023-05-20T04:42:52;13.05;;;8.52;;
22646;SDS011;11490;42.726;23.268;2023-05-20T04:45:18;13.80;;;7.95;;
22646;SDS011;11490;42.726;23.268;2023-05-20T04:47:44;19.98;;;7.60;;
22646;SDS011;11490;42.726;23.268;2023-05-20T04:50:10;13.32;;;7.97;;
22646;SDS011;11490;42.726;23.268;2023-05-20T04:52:36;12.40;;;8.02;;
22646;SDS011;11490;42.726;23.268;2023-05-20T04:55:03;12.05;;;7.55;;
22646;SDS011;11490;42.726;23.268;2023-05-20T04:57:29;11.48;;;7.32;;
22646;SDS011;11490;42.726;23.268;2023-05-20T04:59:55;14.38;;;8.95;;
22646;SDS011;11490;42.726;23.268;2023-05-20T05:02:23;20.50;;;7.63;;
22646;SDS011;11490;42.726;23.268;2023-05-20T05:04:49;11.23;;;7.47;;
22646;SDS011;11490;42.726;23.268;2023-05-20T05:07:14;16.25;;;10.50;;
22646;SDS011;11490;42.726;23.268;2023-05-20T05:09:40;17.95;;;8.43;;
22646;SDS011;11490;42.726;23.268;2023-05-20T05:12:05;25.58;;;12.07;;
22646;SDS011;11490;42.726;23.268;2023-05-20T05:14:31;72.38;;;25.38;;
22646;SDS011;11490;42.726;23.268;2023-05-20T05:16:56;22.00;;;11.30;;
22646;SDS011;11490;42.726;23.268;2023-05-20T05:19:22;13.70;;;8.60;;
22646;SDS011;11490;42.726;23.268;2023-05-20T05:21:47;15.75;;;9.57;;
22646;SDS011;11490;42.726;23.268;2023-05-20T05:24:12;15.07;;;8.90;;
22646;SDS011;11490;42.726;23.268;2023-05-20T05:26:38;20.25;;;10.57;;
22646;SDS011;11490;42.726;23.268;2023-05-20T05:29:03;33.35;;;20.75;;
22646;SDS011;11490;42.726;23.268;2023-05-20T05:31:29;15.95;;;9.65;;
22646;SDS011;11490;42.726;23.268;2023-05-20T05:33:54;17.20;;;11.10;;
22646;SDS011;11490;42.726;23.268;2023-05-20T05:36:19;15.63;;;9.93;;
22646;SDS011;11490;42.726;23.268;2023-05-20T05:38:45;18.58;;;10.85;;
22646;SDS011;11490;42.726;23.268;2023-05-20T05:41:10;15.00;;;9.32;;
22646;SDS011;11490;42.726;23.268;2023-05-20T05:43:35;18.00;;;10.18;;
22646;SDS011;11490;42.726;23.268;2023-05-20T05:46:01;17.42;;;9.60;;
22646;SDS011;11490;42.726;23.268;2023-05-20T05:48:26;20.98;;;10.68;;
22646;SDS011;11490;42.726;23.268;2023-05-20T05:50:52;13.43;;;9.43;;
22646;SDS011;11490;42.726;23.268;2023-05-20T05:53:17;14.85;;;10.05;;
22646;SDS011;11490;42.726;23.268;2023-05-20T05:55:44;25.83;;;12.88;;
22646;SDS011;11490;42.726;23.268;2023-05-20T05:58:10;24.02;;;13.15;;
22646;SDS011;11490;42.726;23.268;2023-05-20T06:00:36;23.00;;;11.07;;
22646;SDS011;11490;42.726;23.268;2023-05-20T06:03:01;20.77;;;10.95;;
22646;SDS011;11490;42.726;23.268;2023-05-20T06:05:27;34.97;;;14.43;;
22646;SDS011;11490;42.726;23.268;2023-05-20T06:07:52;16.65;;;10.50;;
22646;SDS011;11490;42.726;23.268;2023-05-20T06:10:18;16.13;;;10.13;;
22646;SDS011;11490;42.726;23.268;2023-05-20T06:12:43;13.55;;;9.13;;
22646;SDS011;11490;42.726;23.268;2023-05-20T06:15:09;16.02;;;9.05;;
22646;SDS011;11490;42.726;23.268;2023-05-20T06:17:35;18.13;;;11.30;;
22646;SDS011;11490;42.726;23.268;2023-05-20T06:20:00;15.20;;;10.98;;
22646;SDS011;11490;42.726;23.268;2023-05-20T06:22:26;19.20;;;8.82;;
22646;SDS011;11490;42.726;23.268;2023-05-20T06:24:52;14.23;;;7.93;;
22646;SDS011;11490;42.726;23.268;2023-05-20T06:27:18;16.65;;;9.43;;
22646;SDS011;11490;42.726;23.268;2023-05-20T06:29:43;17.73;;;8.77;;
22646;SDS011;11490;42.726;23.268;2023-05-20T06:32:09;20.02;;;8.32;;
22646;SDS011;11490;42.726;23.268;2023-05-20T06:34:34;16.88;;;9.73;;
22646;SDS011;11490;42.726;23.268;2023-05-20T06:36:59;16.25;;;7.90;;
22646;SDS011;11490;42.726;23.268;2023-05-20T06:39:27;12.35;;;6.95;;
22646;SDS011;11490;42.726;23.268;2023-05-20T06:41:52;9.95;;;6.18;;
22646;SDS011;11490;42.726;23.268;2023-05-20T06:44:18;10.02;;;6.55;;
22646;SDS011;11490;42.726;23.268;2023-05-20T06:46:43;9.98;;;4.40;;
22646;SDS011;11490;42.726;23.268;2023-05-20T06:49:09;9.75;;;5.63;;
22646;SDS011;11490;42.726;23.268;2023-05-20T06:51:34;9.13;;;5.25;;
22646;SDS011;11490;42.726;23.268;2023-05-20T06:54:00;10.30;;;4.85;;
22646;SDS011;11490;42.726;23.268;2023-05-20T06:56:25;8.82;;;5.43;;
22646;SDS011;11490;42.726;23.268;2023-05-20T06:58:53;8.23;;;5.30;;
22646;SDS011;11490;42.726;23.268;2023-05-20T07:01:19;7.28;;;5.20;;
22646;SDS011;11490;42.726;23.268;2023-05-20T07:03:44;10.82;;;4.78;;
22646;SDS011;11490;42.726;23.268;2023-05-20T07:06:10;8.43;;;4.80;;
22646;SDS011;11490;42.726;23.268;2023-05-20T07:08:35;7.57;;;5.45;;
22646;SDS011;11490;42.726;23.268;2023-05-20T07:11:01;8.77;;;4.72;;
22646;SDS011;11490;42.726;23.268;2023-05-20T07:13:26;10.25;;;5.00;;
22646;SDS011;11490;42.726;23.268;2023-05-20T07:15:51;5.57;;;3.88;;
22646;SDS011;11490;42.726;23.268;2023-05-20T07:18:17;9.38;;;4.68;;
22646;SDS011;11490;42.726;23.268;2023-05-20T07:20:43;7.80;;;3.97;;
22646;SDS011;11490;42.726;23.268;2023-05-20T07:23:09;7.72;;;4.30;;
22646;SDS011;11490;42.726;23.268;2023-05-20T07:25:35;7.68;;;4.47;;
22646;SDS011;11490;42.726;23.268;2023-05-20T07:28:00;6.97;;;4.55;;
22646;SDS011;11490;42.726;23.268;2023-05-20T07:30:26;9.18;;;4.82;;
22646;SDS011;11490;42.726;23.268;2023-05-20T07:32:52;8.80;;;3.92;;
22646;SDS011;11490;42.726;23.268;2023-05-20T07:35:17;4.28;;;3.55;;
22646;SDS011;11490;42.726;23.268;2023-05-20T07:37:43;9.70;;;3.83;;
22646;SDS011;11490;42.726;23.268;2023-05-20T07:40:08;6.65;;;4.05;;
22646;SDS011;11490;42.726;23.268;2023-05-20T07:42:34;6.95;;;3.97;;
22646;SDS011;11490;42.726;23.268;2023-05-20T07:44:59;5.85;;;3.75;;
22646;SDS011;11490;42.726;23.268;2023-05-20T07:47:25;7.57;;;3.97;;
22646;SDS011;11490;42.726;23.268;2023-05-20T07:49:50;8.40;;;3.88;;
22646;SDS011;11490;42.726;23.268;2023-05-20T07:52:15;7.85;;;4.38;;
22646;SDS011;11490;42.726;23.268;2023-05-20T07:54:41;5.43;;;3.50;;
22646;SDS011;11490;42.726;23.268;2023-05-20T07:57:07;6.90;;;3.75;;
22646;SDS011;11490;42.726;23.268;2023-05-20T07:59:33;6.55;;;4.28;;
22646;SDS011;11490;42.726;23.268;2023-05-20T08:01:58;5.50;;;3.38;;
22646;SDS011;11490;42.726;23.268;2023-05-20T08:04:24;7.03;;;3.45;;
22646;SDS011;11490;42.726;23.268;2023-05-20T08:06:51;5.53;;;3.53;;
22646;SDS011;11490;42.726;23.268;2023-05-20T08:09:17;5.00;;;3.80;;
22646;SDS011;11490;42.726;23.268;2023-05-20T08:11:43;6.28;;;3.85;;
22646;SDS011;11490;42.726;23.268;2023-05-20T08:14:08;6.32;;;3.85;;
22646;SDS011;11490;42.726;23.268;2023-05-20T08:16:34;9.23;;;4.10;;
22646;SDS011;11490;42.726;23.268;2023-05-20T08:19:00;7.07;;;4.22;;
22646;SDS011;11490;42.726;23.268;2023-05-20T08:21:25;6.53;;;4.03;;
22646;SDS011;11490;42.726;23.268;2023-05-20T08:23:51;9.40;;;4.40;;
22646;SDS011;11490;42.726;23.268;2023-05-20T08:26:16;8.07;;;3.80;;
22646;SDS011;11490;42.726;23.268;2023-05-20T08:28:42;6.18;;;3.75;;
22646;SDS011;11490;42.726;23.268;2023-05-20T08:31:07;5.13;;;4.07;;
22646;SDS011;11490;42.726;23.268;2023-05-20T08:33:33;5.90;;;3.92;;
22646;SDS011;11490;42.726;23.268;2023-05-20T08:35:59;5.88;;;4.28;;
22646;SDS011;11490;42.726;23.268;2023-05-20T08:38:24;5.78;;;3.72;;
22646;SDS011;11490;42.726;23.268;2023-05-20T08:40:50;6.28;;;4.20;;
22646;SDS011;11490;42.726;23.268;2023-05-20T08:43:19;5.57;;;3.88;;
22646;SDS011;11490;42.726;23.268;2023-05-20T08:45:45;5.88;;;4.03;;
22646;SDS011;11490;42.726;23.268;2023-05-20T08:48:10;7.22;;;4.22;;
22646;SDS011;11490;42.726;23.268;2023-05-20T08:50:36;6.65;;;3.80;;
22646;SDS011;11490;42.726;23.268;2023-05-20T08:53:02;6.70;;;4.00;;
22646;SDS011;11490;42.726;23.268;2023-05-20T08:58:19;6.25;;;3.83;;
22646;SDS011;11490;42.726;23.268;2023-05-20T09:00:46;7.57;;;3.42;;
22646;SDS011;11490;42.726;23.268;2023-05-20T09:03:11;5.53;;;3.92;;
22646;SDS011;11490;42.726;23.268;2023-05-20T09:05:36;4.90;;;3.47;;
22646;SDS011;11490;42.726;23.268;2023-05-20T09:08:05;4.78;;;3.20;;
22646;SDS011;11490;42.726;23.268;2023-05-20T09:10:32;6.28;;;3.72;;
22646;SDS011;11490;42.726;23.268;2023-05-20T09:13:02;7.20;;;3.63;;
22646;SDS011;11490;42.726;23.268;2023-05-20T09:15:31;5.63;;;3.50;;
22646;SDS011;11490;42.726;23.268;2023-05-20T09:18:01;5.88;;;3.78;;
22646;SDS011;11490;42.726;23.268;2023-05-20T09:20:28;7.30;;;4.03;;
22646;SDS011;11490;42.726;23.268;2023-05-20T09:22:59;5.28;;;3.35;;
22646;SDS011;11490;42.726;23.268;2023-05-20T09:25:25;7.93;;;3.30;;
22646;SDS011;11490;42.726;23.268;2023-05-20T09:27:51;5.22;;;3.45;;
22646;SDS011;11490;42.726;23.268;2023-05-20T09:30:20;7.60;;;3.40;;
22646;SDS011;11490;42.726;23.268;2023-05-20T09:32:53;6.50;;;3.80;;
22646;SDS011;11490;42.726;23.268;2023-05-20T09:35:19;5.75;;;3.58;;
22646;SDS011;11490;42.726;23.268;2023-05-20T09:37:45;8.43;;;4.00;;
22646;SDS011;11490;42.726;23.268;2023-05-20T09:40:12;7.82;;;4.38;;
22646;SDS011;11490;42.726;23.268;2023-05-20T09:43:01;6.10;;;3.97;;
22646;SDS011;11490;42.726;23.268;2023-05-20T09:45:28;5.47;;;3.70;;
22646;SDS011;11490;42.726;23.268;2023-05-20T09:47:55;5.22;;;2.95;;
22646;SDS011;11490;42.726;23.268;2023-05-20T09:50:22;5.57;;;3.58;;
22646;SDS011;11490;42.726;23.268;2023-05-20T09:52:49;8.60;;;3.47;;
22646;SDS011;11490;42.726;23.268;2023-05-20T09:55:16;8.98;;;3.63;;
22646;SDS011;11490;42.726;23.268;2023-05-20T09:57:43;6.85;;;4.07;;
22646;SDS011;11490;42.726;23.268;2023-05-20T10:00:09;9.82;;;4.50;;
22646;SDS011;11490;42.726;23.268;2023-05-20T10:02:39;5.18;;;3.30;;
22646;SDS011;11490;42.726;23.268;2023-05-20T10:05:08;7.22;;;3.85;;
22646;SDS011;11490;42.726;23.268;2023-05-20T10:10:53;6.50;;;3.63;;
22646;SDS011;11490;42.726;23.268;2023-05-20T10:21:29;4.55;;;3.47;;
22646;SDS011;11490;42.726;23.268;2023-05-20T10:24:04;5.47;;;3.10;;
22646;SDS011;11490;42.726;23.268;2023-05-20T10:26:39;4.28;;;2.97;;
22646;SDS011;11490;42.726;23.268;2023-05-20T10:29:18;5.22;;;3.50;;
22646;SDS011;11490;42.726;23.268;2023-05-20T10:31:50;4.00;;;2.42;;
22646;SDS011;11490;42.726;23.268;2023-05-20T10:34:17;4.25;;;2.90;;
22646;SDS011;11490;42.726;23.268;2023-05-20T10:37:04;4.95;;;3.22;;
22646;SDS011;11490;42.726;23.268;2023-05-20T10:39:30;4.43;;;2.70;;
22646;SDS011;11490;42.726;23.268;2023-05-20T10:42:06;4.97;;;2.90;;
22646;SDS011;11490;42.726;23.268;2023-05-20T10:47:10;3.60;;;2.33;;
22646;SDS011;11490;42.726;23.268;2023-05-20T10:49:40;3.30;;;2.13;;
22646;SDS011;11490;42.726;23.268;2023-05-20T10:52:10;9.00;;;6.75;;
22646;SDS011;11490;42.726;23.268;2023-05-20T10:54:43;7.13;;;2.72;;
22646;SDS011;11490;42.726;23.268;2023-05-20T10:57:18;5.82;;;3.28;;
22646;SDS011;11490;42.726;23.268;2023-05-20T10:59:44;5.47;;;3.00;;
22646;SDS011;11490;42.726;23.268;2023-05-20T11:02:11;6.40;;;3.78;;
22646;SDS011;11490;42.726;23.268;2023-05-20T11:04:43;12.65;;;3.83;;
22646;SDS011;11490;42.726;23.268;2023-05-20T11:07:09;4.63;;;3.15;;
22646;SDS011;11490;42.726;23.268;2023-05-20T11:09:34;5.35;;;3.22;;
22646;SDS011;11490;42.726;23.268;2023-05-20T11:12:00;3.75;;;2.03;;
22646;SDS011;11490;42.726;23.268;2023-05-20T11:14:29;3.65;;;2.40;;
22646;SDS011;11490;42.726;23.268;2023-05-20T11:16:55;5.03;;;2.97;;
22646;SDS011;11490;42.726;23.268;2023-05-20T11:19:22;4.60;;;3.13;;
22646;SDS011;11490;42.726;23.268;2023-05-20T11:21:48;5.93;;;3.83;;
22646;SDS011;11490;42.726;23.268;2023-05-20T11:24:13;4.38;;;2.75;;
22646;SDS011;11490;42.726;23.268;2023-05-20T11:26:48;4.82;;;3.38;;
22646;SDS011;11490;42.726;23.268;2023-05-20T11:29:18;4.75;;;3.00;;
22646;SDS011;11490;42.726;23.268;2023-05-20T11:31:44;5.68;;;3.55;;
22646;SDS011;11490;42.726;23.268;2023-05-20T11:34:11;4.55;;;3.05;;
22646;SDS011;11490;42.726;23.268;2023-05-20T11:36:44;4.45;;;3.15;;
22646;SDS011;11490;42.726;23.268;2023-05-20T11:39:13;6.10;;;3.30;;
22646;SDS011;11490;42.726;23.268;2023-05-20T11:41:39;4.13;;;3.10;;
22646;SDS011;11490;42.726;23.268;2023-05-20T11:44:09;4.78;;;2.97;;
22646;SDS011;11490;42.726;23.268;2023-05-20T11:46:42;5.38;;;3.50;;
22646;SDS011;11490;42.726;23.268;2023-05-20T11:49:08;4.25;;;3.28;;
22646;SDS011;11490;42.726;23.268;2023-05-20T11:51:34;6.90;;;3.47;;
22646;SDS011;11490;42.726;23.268;2023-05-20T11:54:03;3.08;;;1.85;;
22646;SDS011;11490;42.726;23.268;2023-05-20T11:56:32;5.88;;;3.25;;
22646;SDS011;11490;42.726;23.268;2023-05-20T11:59:00;5.80;;;3.42;;
22646;SDS011;11490;42.726;23.268;2023-05-20T12:01:28;5.95;;;3.47;;
22646;SDS011;11490;42.726;23.268;2023-05-20T12:03:55;6.88;;;3.13;;
22646;SDS011;11490;42.726;23.268;2023-05-20T12:06:20;9.57;;;3.25;;
22646;SDS011;11490;42.726;23.268;2023-05-20T12:08:46;5.57;;;3.33;;
22646;SDS011;11490;42.726;23.268;2023-05-20T12:11:11;5.75;;;2.92;;
22646;SDS011;11490;42.726;23.268;2023-05-20T12:13:38;4.70;;;3.15;;
22646;SDS011;11490;42.726;23.268;2023-05-20T12:16:04;5.60;;;3.70;;
22646;SDS011;11490;42.726;23.268;2023-05-20T12:18:30;5.97;;;3.45;;
22646;SDS011;11490;42.726;23.268;2023-05-20T12:20:59;5.20;;;3.15;;
22646;SDS011;11490;42.726;23.268;2023-05-20T12:23:25;6.07;;;3.22;;
22646;SDS011;11490;42.726;23.268;2023-05-20T12:25:50;4.35;;;3.03;;
22646;SDS011;11490;42.726;23.268;2023-05-20T12:28:21;5.95;;;3.63;;
22646;SDS011;11490;42.726;23.268;2023-05-20T12:30:47;4.72;;;3.47;;
22646;SDS011;11490;42.726;23.268;2023-05-20T12:33:12;6.28;;;3.88;;
22646;SDS011;11490;42.726;23.268;2023-05-20T12:35:39;6.18;;;3.83;;
22646;SDS011;11490;42.726;23.268;2023-05-20T12:38:08;4.07;;;2.40;;
22646;SDS011;11490;42.726;23.268;2023-05-20T12:40:34;5.22;;;3.13;;
22646;SDS011;11490;42.726;23.268;2023-05-20T12:43:01;7.45;;;3.45;;
22646;SDS011;11490;42.726;23.268;2023-05-20T12:45:27;7.65;;;3.42;;
22646;SDS011;11490;42.726;23.268;2023-05-20T12:47:56;5.28;;;2.65;;
22646;SDS011;11490;42.726;23.268;2023-05-20T12:50:22;4.72;;;2.28;;
22646;SDS011;11490;42.726;23.268;2023-05-20T12:52:48;4.40;;;2.17;;
22646;SDS011;11490;42.726;23.268;2023-05-20T12:55:14;3.70;;;2.17;;
22646;SDS011;11490;42.726;23.268;2023-05-20T12:57:39;4.35;;;2.83;;
22646;SDS011;11490;42.726;23.268;2023-05-20T13:02:57;6.60;;;2.75;;
22646;SDS011;11490;42.726;23.268;2023-05-20T13:05:22;6.15;;;2.13;;
22646;SDS011;11490;42.726;23.268;2023-05-20T13:07:48;4.22;;;2.20;;
22646;SDS011;11490;42.726;23.268;2023-05-20T13:10:13;3.15;;;2.22;;
22646;SDS011;11490;42.726;23.268;2023-05-20T13:12:38;5.28;;;2.75;;
22646;SDS011;11490;42.726;23.268;2023-05-20T13:15:09;3.45;;;2.22;;
22646;SDS011;11490;42.726;23.268;2023-05-20T13:17:37;4.55;;;2.45;;
22646;SDS011;11490;42.726;23.268;2023-05-20T13:20:03;4.93;;;2.42;;
22646;SDS011;11490;42.726;23.268;2023-05-20T13:22:29;3.45;;;2.58;;
22646;SDS011;11490;42.726;23.268;2023-05-20T13:24:55;3.13;;;2.50;;
22646;SDS011;11490;42.726;23.268;2023-05-20T13:27:21;3.22;;;2.25;;
22646;SDS011;11490;42.726;23.268;2023-05-20T13:29:46;4.18;;;2.58;;
22646;SDS011;11490;42.726;23.268;2023-05-20T13:32:13;3.22;;;2.28;;
22646;SDS011;11490;42.726;23.268;2023-05-20T13:34:39;3.80;;;2.50;;
22646;SDS011;11490;42.726;23.268;2023-05-20T13:37:04;4.40;;;2.95;;
22646;SDS011;11490;42.726;23.268;2023-05-20T13:39:30;5.90;;;3.13;;
22646;SDS011;11490;42.726;23.268;2023-05-20T13:41:56;5.60;;;2.90;;
22646;SDS011;11490;42.726;23.268;2023-05-20T13:44:22;4.40;;;3.05;;
22646;SDS011;11490;42.726;23.268;2023-05-20T13:46:54;3.88;;;2.40;;
22646;SDS011;11490;42.726;23.268;2023-05-20T13:49:20;3.35;;;2.40;;
22646;SDS011;11490;42.726;23.268;2023-05-20T13:51:45;5.88;;;3.10;;
22646;SDS011;11490;42.726;23.268;2023-05-20T13:54:11;4.53;;;2.65;;
22646;SDS011;11490;42.726;23.268;2023-05-20T13:56:36;4.63;;;2.63;;
22646;SDS011;11490;42.726;23.268;2023-05-20T13:59:02;4.10;;;2.80;;
22646;SDS011;11490;42.726;23.268;2023-05-20T14:01:29;3.40;;;2.67;;
22646;SDS011;11490;42.726;23.268;2023-05-20T14:03:56;5.63;;;3.63;;
22646;SDS011;11490;42.726;23.268;2023-05-20T14:06:22;4.70;;;2.97;;
22646;SDS011;11490;42.726;23.268;2023-05-20T14:08:47;5.43;;;3.15;;
22646;SDS011;11490;42.726;23.268;2023-05-20T14:11:13;4.32;;;2.80;;
22646;SDS011;11490;42.726;23.268;2023-05-20T14:13:38;6.57;;;3.55;;
22646;SDS011;11490;42.726;23.268;2023-05-20T14:16:04;4.45;;;3.25;;
22646;SDS011;11490;42.726;23.268;2023-05-20T14:18:29;4.30;;;2.92;;
22646;SDS011;11490;42.726;23.268;2023-05-20T14:20:55;5.85;;;2.90;;
22646;SDS011;11490;42.726;23.268;2023-05-20T14:23:20;6.47;;;3.03;;
22646;SDS011;11490;42.726;23.268;2023-05-20T14:25:46;5.40;;;3.05;;
22646;SDS011;11490;42.726;23.268;2023-05-20T14:28:11;4.53;;;2.72;;
22646;SDS011;11490;42.726;23.268;2023-05-20T14:30:36;3.72;;;3.00;;
22646;SDS011;11490;42.726;23.268;2023-05-20T14:33:02;4.90;;;2.85;;
22646;SDS011;11490;42.726;23.268;2023-05-20T14:35:27;3.95;;;2.80;;
22646;SDS011;11490;42.726;23.268;2023-05-20T14:37:52;4.05;;;2.92;;
22646;SDS011;11490;42.726;23.268;2023-05-20T14:40:18;4.97;;;3.03;;
22646;SDS011;11490;42.726;23.268;2023-05-20T14:42:43;4.53;;;3.03;;